createdAt,value
2023-02-13T00:01:44.803Z,99256.09
2023-02-13T00:04:30.076Z,99260.41
2023-02-13T00:07:15.567Z,99256.09
2023-02-13T00:10:01.014Z,99259.56
2023-02-13T00:12:46.762Z,99256.09
2023-02-13T00:15:32.698Z,99253.59
2023-02-13T00:18:18.470Z,99250.97
2023-02-13T00:21:07.220Z,99255.41
2023-02-13T00:23:52.904Z,99255.41
2023-02-13T00:26:40.057Z,99246.72
2023-02-13T00:29:25.370Z,99250.03
2023-02-13T00:32:11.203Z,99249.22
2023-02-13T00:34:56.741Z,99251.97
2023-02-13T00:37:42.554Z,99246.72
2023-02-13T00:40:28.358Z,99254.69
2023-02-13T00:43:13.599Z,99250.56
2023-02-13T00:45:59.597Z,99255.13
2023-02-13T00:48:45.245Z,99259.66
2023-02-13T00:51:31.471Z,99253.56
2023-02-13T00:54:16.698Z,99261.56
2023-02-13T00:57:03.348Z,99244.19
2023-02-13T00:59:50.536Z,99258.25
2023-02-13T01:02:36.856Z,99253.00
2023-02-13T01:05:23.968Z,99256.59
2023-02-13T01:08:10.999Z,99254.94
2023-02-13T01:10:57.143Z,99255.91
2023-02-13T01:13:43.196Z,99256.03
2023-02-13T01:16:28.837Z,99239.47
2023-02-13T01:19:14.586Z,99251.63
2023-02-13T01:22:00.390Z,99241.28
2023-02-13T01:24:46.276Z,99256.03
2023-02-13T01:27:32.435Z,99256.03
2023-02-13T01:30:19.276Z,99244.72
2023-02-13T01:33:04.949Z,99249.28
2023-02-13T01:35:51.539Z,99250.22
2023-02-13T01:38:37.335Z,99254.63
2023-02-13T01:41:24.474Z,99246.91
2023-02-13T01:44:56.321Z,99241.66
2023-02-13T01:47:46.076Z,99240.13
2023-02-13T01:50:31.446Z,99245.53
2023-02-13T01:53:38.735Z,99240.28
2023-02-13T01:56:31.702Z,99242.06
2023-02-13T01:59:21.537Z,99238.63
2023-02-13T02:02:07.483Z,99249.09
2023-02-13T02:04:53.725Z,99240.53
2023-02-13T02:07:41.251Z,99239.81
2023-02-13T02:10:27.511Z,99236.38
2023-02-13T02:13:19.359Z,99238.19
2023-02-13T02:16:05.287Z,99232.94
2023-02-13T02:18:50.923Z,99231.28
2023-02-13T02:22:05.812Z,99221.75
2023-02-13T02:25:18.004Z,99230.84
2023-02-13T02:28:28.386Z,99227.78
2023-02-13T02:31:23.224Z,99228.75
2023-02-13T02:34:18.152Z,99226.97
2023-02-13T02:37:34.852Z,99220.06
2023-02-13T02:40:37.124Z,99222.53
2023-02-13T02:43:29.411Z,99211.38
2023-02-13T02:47:03.699Z,99211.50
2023-02-13T02:49:59.948Z,99210.69
2023-02-13T02:53:09.270Z,99212.47
2023-02-13T02:56:14.077Z,99212.47
2023-02-13T02:59:26.892Z,99221.16
2023-02-13T03:02:32.945Z,99222.81
2023-02-13T03:05:46.803Z,99220.19
2023-02-13T03:08:51.660Z,99219.75
2023-02-13T03:11:56.441Z,99218.09
2023-02-13T03:14:44.344Z,99218.09
2023-02-13T03:17:48.475Z,99208.44
2023-02-13T03:21:04.930Z,99212.72
2023-02-13T03:24:03.427Z,99212.59
2023-02-13T03:27:05.443Z,99210.91
2023-02-13T03:30:09.054Z,99210.91
2023-02-13T03:33:18.828Z,99210.09
2023-02-13T03:36:34.075Z,99208.31
2023-02-13T03:39:21.970Z,99201.28
2023-02-13T03:42:18.325Z,99208.31
2023-02-13T03:45:35.251Z,99205.97
2023-02-13T03:48:45.577Z,99211.19
2023-02-13T03:51:39.208Z,99212.88
2023-02-13T03:55:08.446Z,99205.81
2023-02-13T03:58:17.253Z,99205.00
2023-02-13T04:01:05.415Z,99200.72
2023-02-13T04:03:56.222Z,99200.72
2023-02-13T04:07:03.102Z,99205.16
2023-02-13T04:09:48.676Z,99206.78
2023-02-13T04:12:55.708Z,99204.31
2023-02-13T04:15:49.184Z,99210.50
2023-02-13T04:18:35.401Z,99213.09
2023-02-13T04:21:21.326Z,99209.53
2023-02-13T04:24:07.798Z,99213.00
2023-02-13T04:26:54.615Z,99213.00
2023-02-13T04:29:40.188Z,99215.47
2023-02-13T04:32:25.459Z,99203.22
2023-02-13T04:35:13.003Z,99213.53
2023-02-13T04:37:58.360Z,99209.28
2023-02-13T04:40:44.178Z,99213.69
2023-02-13T04:43:29.468Z,99213.81
2023-02-13T04:46:15.444Z,99208.72
2023-02-13T04:49:00.841Z,99207.88
2023-02-13T04:51:46.383Z,99212.16
2023-02-13T04:54:31.973Z,99214.78
2023-02-13T04:57:17.621Z,99200.88
2023-02-13T05:00:04.873Z,99201.81
2023-02-13T05:02:50.498Z,99205.41
2023-02-13T05:05:36.481Z,99205.41
2023-02-13T05:08:22.227Z,99215.16
2023-02-13T05:11:07.825Z,99211.59
2023-02-13T05:13:53.345Z,99211.59
2023-02-13T05:16:39.179Z,99211.72
2023-02-13T05:19:25.132Z,99208.16
2023-02-13T05:22:30.433Z,99208.97
2023-02-13T05:25:16.183Z,99215.06
2023-02-13T05:28:02.299Z,99215.72
2023-02-13T05:30:48.406Z,99214.06
2023-02-13T05:33:34.508Z,99214.06
2023-02-13T05:36:20.237Z,99218.34
2023-02-13T05:39:06.635Z,99225.25
2023-02-13T05:41:52.089Z,99219.31
2023-02-13T05:44:37.381Z,99224.53
2023-02-13T05:47:23.027Z,99223.84
2023-02-13T05:50:08.961Z,99222.19
2023-02-13T05:52:54.590Z,99223.84
2023-02-13T05:55:40.459Z,99226.56
2023-02-13T05:58:26.284Z,99228.38
2023-02-13T06:01:11.399Z,99231.81
2023-02-13T06:03:59.027Z,99224.09
2023-02-13T06:06:45.635Z,99224.09
2023-02-13T06:09:31.516Z,99230.28
2023-02-13T06:12:17.145Z,99232.91
2023-02-13T06:15:02.674Z,99237.19
2023-02-13T06:17:48.069Z,99244.09
2023-02-13T06:20:34.034Z,99244.91
2023-02-13T06:23:19.683Z,99245.88
2023-02-13T06:26:10.090Z,99251.38
2023-02-13T06:28:55.731Z,99250.66
2023-02-13T06:31:41.820Z,99249.84
2023-02-13T06:34:27.929Z,99252.59
2023-02-13T06:37:13.485Z,99255.06
2023-02-13T06:39:59.810Z,99254.13
2023-02-13T06:42:45.919Z,99260.06
2023-02-13T06:45:31.047Z,99256.47
2023-02-13T06:48:16.529Z,99253.84
2023-02-13T06:51:02.175Z,99258.28
2023-02-13T06:53:47.832Z,99253.03
2023-02-13T06:56:33.482Z,99262.56
2023-02-13T06:59:18.892Z,99262.41
2023-02-13T07:02:05.153Z,99263.38
2023-02-13T07:04:50.446Z,99258.84
2023-02-13T07:07:37.597Z,99262.16
2023-02-13T07:10:23.359Z,99258.56
2023-02-13T07:13:09.582Z,99263.56
2023-02-13T07:15:55.229Z,99267.97
2023-02-13T07:18:41.034Z,99270.31
2023-02-13T07:21:26.572Z,99264.13
2023-02-13T07:24:12.441Z,99272.69
2023-02-13T07:26:57.955Z,99272.56
2023-02-13T07:29:43.499Z,99274.09
2023-02-13T07:32:29.052Z,99289.66
2023-02-13T07:35:14.781Z,99288.72
2023-02-13T07:38:00.977Z,99288.56
2023-02-13T07:40:46.374Z,99292.72
2023-02-13T07:43:32.095Z,99295.09
2023-02-13T07:46:18.408Z,99294.81
2023-02-13T07:49:04.210Z,99294.72
2023-02-13T07:51:49.784Z,99298.00
2023-02-13T07:54:36.982Z,99300.38
2023-02-13T07:57:22.670Z,99304.53
2023-02-13T08:00:09.255Z,99302.63
2023-02-13T08:03:01.595Z,99303.31
2023-02-13T08:05:48.372Z,99299.63
2023-02-13T08:08:35.165Z,99297.69
2023-02-13T08:11:50.340Z,99300.88
2023-02-13T08:14:35.551Z,99295.50
2023-02-13T08:17:21.272Z,99295.25
2023-02-13T08:20:09.619Z,99295.94
2023-02-13T08:23:02.175Z,99282.56
2023-02-13T08:25:49.458Z,99284.94
2023-02-13T08:28:35.152Z,99279.28
2023-02-13T08:31:20.959Z,99285.09
2023-02-13T08:34:06.346Z,99282.06
2023-02-13T08:36:51.814Z,99285.13
2023-02-13T08:39:37.485Z,99282.25
2023-02-13T08:42:23.076Z,99284.59
2023-02-13T08:45:10.754Z,99287.66
2023-02-13T08:47:59.780Z,99288.31
2023-02-13T08:50:45.266Z,99287.13
2023-02-13T08:53:30.704Z,99283.25
2023-02-13T08:56:16.167Z,99276.75
2023-02-13T08:59:01.923Z,99279.84
2023-02-13T09:01:48.536Z,99278.44
2023-02-13T09:04:34.712Z,99278.88
2023-02-13T09:07:20.518Z,99278.44
2023-02-13T09:10:07.234Z,99278.91
2023-02-13T09:12:53.756Z,99282.75
2023-02-13T09:15:43.935Z,99277.09
2023-02-13T09:18:29.665Z,99284.69
2023-02-13T09:21:15.971Z,99279.03
2023-02-13T09:24:01.744Z,99278.63
2023-02-13T09:26:47.216Z,99284.97
2023-02-13T09:29:33.936Z,99282.91
2023-02-13T09:32:19.698Z,99284.97
2023-02-13T09:35:06.703Z,99286.06
2023-02-13T09:37:51.904Z,99293.25
2023-02-13T09:40:59.635Z,99291.88
2023-02-13T09:43:48.268Z,99290.34
2023-02-13T09:46:37.510Z,99284.53
2023-02-13T09:49:28.101Z,99294.59
2023-02-13T09:52:15.142Z,99296.53
2023-02-13T09:55:02.289Z,99294.28
2023-02-13T09:57:58.939Z,99305.34
2023-02-13T10:00:50.844Z,99303.13
2023-02-13T10:04:28.800Z,99304.50
2023-02-13T10:07:33.598Z,99299.66
2023-02-13T10:10:44.329Z,99305.16
2023-02-13T10:13:41.948Z,99308.84
2023-02-13T10:16:33.385Z,99306.50
2023-02-13T10:19:31.530Z,99309.50
2023-02-13T10:22:21.782Z,99310.59
2023-02-13T10:25:22.682Z,99310.13
2023-02-13T10:28:14.551Z,99304.44
2023-02-13T10:31:23.630Z,99304.84
2023-02-13T10:34:16.094Z,99309.38
2023-02-13T10:37:02.556Z,99309.75
2023-02-13T10:39:52.490Z,99308.47
2023-02-13T10:42:45.685Z,99301.97
2023-02-13T10:45:47.732Z,99302.63
2023-02-13T10:48:59.863Z,99305.53
2023-02-13T10:52:03.782Z,99306.59
2023-02-13T10:55:02.746Z,99307.94
2023-02-13T10:58:19.126Z,99300.72
2023-02-13T11:01:21.091Z,99291.38
2023-02-13T11:04:13.109Z,99282.38
2023-02-13T11:07:01.586Z,99283.72
2023-02-13T11:09:49.673Z,99280.50
2023-02-13T11:12:35.287Z,99272.00
2023-02-13T11:15:24.052Z,99269.72
2023-02-13T11:18:19.247Z,99270.78
2023-02-13T11:21:09.954Z,99272.97
2023-02-13T11:23:58.804Z,99275.16
2023-02-13T11:26:44.789Z,99271.06
2023-02-13T11:29:32.896Z,99270.44
2023-02-13T11:32:22.375Z,99270.50
2023-02-13T11:35:37.581Z,99261.81
2023-02-13T11:38:24.654Z,99263.19
2023-02-13T11:41:13.177Z,99256.66
2023-02-13T11:44:02.118Z,99267.41
2023-02-13T11:46:50.051Z,99267.94
2023-02-13T11:49:44.993Z,99267.44
2023-02-13T11:52:33.914Z,99267.13
2023-02-13T11:55:31.855Z,99268.63
2023-02-13T11:58:23.265Z,99275.22
2023-02-13T12:01:20.811Z,99261.88
2023-02-13T12:04:16.753Z,99258.91
2023-02-13T12:07:12.422Z,99261.25
2023-02-13T12:10:08.560Z,99259.78
2023-02-13T12:13:19.006Z,99266.22
2023-02-13T12:16:50.598Z,99261.63
2023-02-13T12:19:42.057Z,99255.22
2023-02-13T12:22:53.110Z,99254.91
2023-02-13T12:25:46.875Z,99250.97
2023-02-13T12:28:58.550Z,99255.09
2023-02-13T12:32:15.337Z,99246.03
2023-02-13T12:35:35.055Z,99251.00
2023-02-13T12:38:23.448Z,99248.50
2023-02-13T12:41:33.179Z,99256.75
2023-02-13T12:44:39.515Z,99251.47
2023-02-13T12:47:31.495Z,99247.00
2023-02-13T12:50:44.749Z,99240.94
2023-02-13T12:53:49.587Z,99237.31
2023-02-13T12:56:38.062Z,99234.50
2023-02-13T12:59:54.207Z,99225.91
2023-02-13T13:02:55.069Z,99225.91
2023-02-13T13:06:12.167Z,99221.47
2023-02-13T13:09:34.267Z,99223.28
2023-02-13T13:12:41.446Z,99216.50
2023-02-13T13:15:33.055Z,99221.63
2023-02-13T13:18:32.377Z,99214.38
2023-02-13T13:21:37.357Z,99223.97
2023-02-13T13:24:32.352Z,99220.16
2023-02-13T13:27:23.470Z,99218.34
2023-02-13T13:30:24.788Z,99214.22
2023-02-13T13:33:14.349Z,99214.06
2023-02-13T13:36:09.616Z,99206.97
2023-02-13T13:39:19.424Z,99204.16
2023-02-13T13:42:23.231Z,99201.41
2023-02-13T13:45:33.717Z,99203.03
2023-02-13T13:48:56.191Z,99195.78
2023-02-13T13:51:41.780Z,99198.25
2023-02-13T13:54:35.686Z,99196.28
2023-02-13T13:57:26.290Z,99191.69
2023-02-13T14:00:14.293Z,99194.97
2023-02-13T14:02:59.980Z,99192.84
2023-02-13T14:06:23.619Z,99193.00
2023-02-13T14:09:40.253Z,99188.41
2023-02-13T14:12:25.779Z,99188.41
2023-02-13T14:15:33.901Z,99187.06
2023-02-13T14:18:22.840Z,99182.78
2023-02-13T14:21:09.791Z,99181.13
2023-02-13T14:24:00.800Z,99184.75
2023-02-13T14:27:05.257Z,99187.06
2023-02-13T14:29:51.574Z,99182.94
2023-02-13T14:32:39.399Z,99180.44
2023-02-13T14:35:31.236Z,99188.22
2023-02-13T14:38:25.514Z,99182.09
2023-02-13T14:41:49.343Z,99181.91
2023-02-13T14:44:49.320Z,99179.44
2023-02-13T14:47:43.019Z,99182.25
2023-02-13T14:50:33.135Z,99178.13
2023-02-13T14:53:27.223Z,99179.94
2023-02-13T14:56:15.607Z,99183.56
2023-02-13T14:59:07.413Z,99183.88
2023-02-13T15:02:00.164Z,99180.44
2023-02-13T15:05:12.670Z,99180.06
2023-02-13T15:08:07.290Z,99180.69
2023-02-13T15:10:56.167Z,99182.84
2023-02-13T15:13:41.737Z,99175.09
2023-02-13T15:16:27.182Z,99178.06
2023-02-13T15:19:21.581Z,99177.69
2023-02-13T15:22:07.530Z,99172.75
2023-02-13T15:24:53.313Z,99173.22
2023-02-13T15:27:43.895Z,99177.81
2023-02-13T15:30:36.582Z,99175.66
2023-02-13T15:33:24.560Z,99177.78
2023-02-13T15:36:20.781Z,99180.56
2023-02-13T15:39:11.045Z,99181.16
2023-02-13T15:42:00.041Z,99178.00
2023-02-13T15:44:48.947Z,99178.19
2023-02-13T15:47:34.725Z,99182.13
2023-02-13T15:50:42.382Z,99184.53
2023-02-13T15:53:28.198Z,99185.16
2023-02-13T15:56:15.273Z,99182.47
2023-02-13T15:59:02.916Z,99177.31
2023-02-13T16:01:50.899Z,99171.66
2023-02-13T16:04:38.385Z,99180.91
2023-02-13T16:07:24.260Z,99176.34
2023-02-13T16:10:36.565Z,99181.06
2023-02-13T16:13:21.902Z,99171.38
2023-02-13T16:16:11.145Z,99172.38
2023-02-13T16:18:56.819Z,99177.41
2023-02-13T16:21:42.566Z,99163.56
2023-02-13T16:24:29.106Z,99154.28
2023-02-13T16:27:15.961Z,99159.63
2023-02-13T16:30:07.570Z,99165.34
2023-02-13T16:33:09.861Z,99173.25
2023-02-13T16:36:01.208Z,99169.69
2023-02-13T16:38:48.955Z,99177.81
2023-02-13T16:41:34.234Z,99174.47
2023-02-13T16:44:23.900Z,99171.94
2023-02-13T16:47:25.514Z,99178.63
2023-02-13T16:50:16.441Z,99183.69
2023-02-13T16:53:04.256Z,99181.97
2023-02-13T16:55:59.444Z,99180.63
2023-02-13T16:58:44.971Z,99179.56
2023-02-13T17:01:30.542Z,99179.22
2023-02-13T17:04:22.234Z,99182.00
2023-02-13T17:07:25.791Z,99189.19
2023-02-13T17:10:28.433Z,99192.00
2023-02-13T17:13:20.625Z,99189.53
2023-02-13T17:16:06.186Z,99187.06
2023-02-13T17:18:51.840Z,99188.19
2023-02-13T17:21:37.791Z,99181.09
2023-02-13T17:24:23.518Z,99187.16
2023-02-13T17:27:10.812Z,99184.31
2023-02-13T17:29:56.619Z,99184.81
2023-02-13T17:32:42.575Z,99187.66
2023-02-13T17:35:28.770Z,99185.19
2023-02-13T17:38:14.864Z,99183.88
2023-02-13T17:41:01.067Z,99185.50
2023-02-13T17:43:46.702Z,99181.00
2023-02-13T17:46:32.249Z,99182.16
2023-02-13T17:49:19.255Z,99179.19
2023-02-13T17:52:05.017Z,99178.81
2023-02-13T17:54:50.760Z,99175.97
2023-02-13T17:57:36.201Z,99177.50
2023-02-13T18:00:21.813Z,99171.66
2023-02-13T18:03:07.859Z,99178.03
2023-02-13T18:05:53.921Z,99179.44
2023-02-13T18:08:39.544Z,99165.31
2023-02-13T18:11:25.774Z,99177.03
2023-02-13T18:14:11.614Z,99171.31
2023-02-13T18:16:57.267Z,99177.09
2023-02-13T18:19:43.419Z,99176.59
2023-02-13T18:22:29.607Z,99172.03
2023-02-13T18:25:15.368Z,99169.75
2023-02-13T18:28:01.308Z,99170.94
2023-02-13T18:30:46.931Z,99174.72
2023-02-13T18:33:32.480Z,99168.97
2023-02-13T18:36:18.457Z,99171.81
2023-02-13T18:39:04.533Z,99177.13
2023-02-13T18:41:50.157Z,99173.91
2023-02-13T18:44:36.239Z,99162.38
2023-02-13T18:47:22.066Z,99164.59
2023-02-13T18:50:08.894Z,99159.59
2023-02-13T18:52:54.944Z,99167.63
2023-02-13T18:55:40.648Z,99173.75
2023-02-13T18:58:26.612Z,99163.56
2023-02-13T19:01:16.520Z,99161.28
2023-02-13T19:04:03.759Z,99160.47
2023-02-13T19:06:49.686Z,99155.34
2023-02-13T19:09:40.090Z,99157.34
2023-02-13T19:12:26.240Z,99152.38
2023-02-13T19:15:12.387Z,99151.00
2023-02-13T19:17:58.303Z,99150.38
2023-02-13T19:20:44.388Z,99149.69
2023-02-13T19:23:31.162Z,99141.16
2023-02-13T19:26:19.451Z,99138.75
2023-02-13T19:29:05.375Z,99144.28
2023-02-13T19:31:51.265Z,99141.78
2023-02-13T19:34:37.246Z,99147.91
2023-02-13T19:37:25.220Z,99141.06
2023-02-13T19:40:11.860Z,99141.16
2023-02-13T19:42:58.188Z,99138.66
2023-02-13T19:45:44.780Z,99154.28
2023-02-13T19:48:30.764Z,99152.59
2023-02-13T19:51:19.457Z,99144.91
2023-02-13T19:54:08.172Z,99137.66
2023-02-13T19:56:55.117Z,99142.09
2023-02-13T19:59:41.047Z,99151.69
2023-02-13T20:02:27.023Z,99151.69
2023-02-13T20:05:13.295Z,99148.25
2023-02-13T20:07:59.372Z,99156.16
2023-02-13T20:10:47.809Z,99153.66
2023-02-13T20:13:33.557Z,99162.41
2023-02-13T20:16:19.842Z,99168.53
2023-02-13T20:19:09.679Z,99159.88
2023-02-13T20:21:55.199Z,99154.09
2023-02-13T20:24:41.371Z,99157.69
2023-02-13T20:27:27.285Z,99167.38
2023-02-13T20:30:15.637Z,99163.22
2023-02-13T20:33:01.239Z,99164.28
2023-02-13T20:35:47.044Z,99159.16
2023-02-13T20:38:32.615Z,99158.44
2023-02-13T20:41:21.109Z,99151.66
2023-02-13T20:44:11.573Z,99137.09
2023-02-13T20:46:57.041Z,99144.19
2023-02-13T20:49:42.850Z,99140.13
2023-02-13T20:52:29.337Z,99131.63
2023-02-13T20:55:15.126Z,99131.69
2023-02-13T20:58:00.804Z,99137.84
2023-02-13T21:00:46.587Z,99137.94
2023-02-13T21:03:32.806Z,99138.03
2023-02-13T21:06:21.556Z,99131.06
2023-02-13T21:09:09.546Z,99133.88
2023-02-13T21:11:55.594Z,99139.28
2023-02-13T21:14:41.316Z,99147.28
2023-02-13T21:17:26.921Z,99142.84
2023-02-13T21:20:12.768Z,99135.03
2023-02-13T21:22:59.741Z,99138.56
2023-02-13T21:25:45.564Z,99125.56
2023-02-13T21:28:31.730Z,99117.97
2023-02-13T21:31:20.910Z,99129.28
2023-02-13T21:34:10.778Z,99125.97
2023-02-13T21:36:56.986Z,99125.97
2023-02-13T21:39:42.585Z,99128.78
2023-02-13T21:42:28.548Z,99132.00
2023-02-13T21:45:13.978Z,99117.63
2023-02-13T21:47:59.873Z,99122.94
2023-02-13T21:50:45.568Z,99124.56
2023-02-13T21:53:31.723Z,99121.16
2023-02-13T21:56:20.937Z,99137.56
2023-02-13T21:59:07.710Z,99128.13
2023-02-13T22:02:02.967Z,99133.31
2023-02-13T22:04:49.675Z,99136.97
2023-02-13T22:07:55.392Z,99138.69
2023-02-13T22:10:41.060Z,99132.75
2023-02-13T22:13:27.663Z,99136.63
2023-02-13T22:16:15.665Z,99135.06
2023-02-13T22:19:01.377Z,99136.09
2023-02-13T22:21:47.432Z,99137.09
2023-02-13T22:24:33.338Z,99135.44
2023-02-13T22:27:18.960Z,99138.97
2023-02-13T22:30:05.491Z,99144.16
2023-02-13T22:32:51.038Z,99150.28
2023-02-13T22:35:40.553Z,99144.16
2023-02-13T22:38:26.202Z,99146.00
2023-02-13T22:41:17.463Z,99146.22
2023-02-13T22:44:03.789Z,99154.31
2023-02-13T22:46:49.571Z,99144.09
2023-02-13T22:49:36.113Z,99140.97
2023-02-13T22:52:21.979Z,99148.88
2023-02-13T22:55:08.082Z,99143.03
2023-02-13T22:57:54.542Z,99137.22
2023-02-13T23:00:40.420Z,99134.78
2023-02-13T23:03:26.138Z,99137.59
2023-02-13T23:06:12.926Z,99129.91
2023-02-13T23:08:58.700Z,99135.00
2023-02-13T23:12:03.031Z,99141.13
2023-02-13T23:14:48.956Z,99147.13
2023-02-13T23:17:53.914Z,99145.38
2023-02-13T23:20:41.404Z,99153.34
2023-02-13T23:23:27.175Z,99150.03
2023-02-13T23:26:12.694Z,99158.91
2023-02-13T23:28:58.441Z,99165.97
2023-02-13T23:31:44.202Z,99163.47
2023-02-13T23:34:29.729Z,99168.66
2023-02-13T23:37:15.612Z,99183.56
2023-02-13T23:40:01.043Z,99179.41
2023-02-13T23:42:46.922Z,99179.50
2023-02-13T23:45:32.443Z,99178.69
2023-02-13T23:48:18.549Z,99174.22
2023-02-13T23:51:04.094Z,99160.44
2023-02-13T23:53:49.945Z,99160.53
2023-02-13T23:56:35.406Z,99154.69
2023-02-13T23:59:22.438Z,99155.63
